Time;durP1;ratioP1;P1;durP2;ratioP2;P2;SDS_P1;SDS_P2;PMS_P1;PMS_P2;Temp;Humidity;BMP_temperature;BMP_pressure;BME280_temperature;BME280_humidity;BME280_pressure;Samples;Min_cycle;Max_cycle;Signal;HPM_P1;HPM_P2
2019/12/12 00:02:08;;;;;;;20.2;12.8;;;;;;;;;;;;;
2019/12/12 00:04:29;;;;;;;19.3;13.5;;;;;;;;;;;;;
2019/12/12 00:06:53;;;;;;;20.1;13.9;;;;;;;;;;;;;
2019/12/12 00:09:20;;;;;;;16.1;11.6;;;;;;;;;;;;;
2019/12/12 00:11:45;;;;;;;17.4;13;;;;;;;;;;;;;
2019/12/12 00:14:10;;;;;;;17.4;12.6;;;;;;;;;;;;;
2019/12/12 00:16:36;;;;;;;16;10.7;;;;;;;;;;;;;
2019/12/12 00:19:02;;;;;;;13.8;9.9;;;;;;;;;;;;;
2019/12/12 00:21:25;;;;;;;14.3;9.6;;;;;;;;;;;;;
2019/12/12 00:23:53;;;;;;;15.2;9.4;;;;;;;;;;;;;
2019/12/12 00:26:18;;;;;;;11.8;8.5;;;;;;;;;;;;;
2019/12/12 00:28:47;;;;;;;11.9;8;;;;;;;;;;;;;
2019/12/12 00:31:09;;;;;;;9.5;6.6;;;;;;;;;;;;;
2019/12/12 00:33:33;;;;;;;8.5;6.1;;;;;;;;;;;;;
2019/12/12 00:35:59;;;;;;;8.8;6.3;;;;;;;;;;;;;
2019/12/12 00:39:22;;;;;;;11.4;8.4;;;;;;;;;;;;;
2019/12/12 00:40:52;;;;;;;12.1;8.8;;;;;;;;;;;;;
2019/12/12 00:43:15;;;;;;;10.6;8.1;;;;;;;;;;;;;
2019/12/12 00:45:40;;;;;;;12.2;8.5;;;;;;;;;;;;;
2019/12/12 00:48:19;;;;;;;11.2;8;;;;;;;;;;;;;
2019/12/12 00:50:35;;;;;;;10.6;7.7;;;;;;;;;;;;;
2019/12/12 00:53:00;;;;;;;10.8;7.6;;;;;;;;;;;;;
2019/12/12 00:56:16;;;;;;;8.5;5.3;;;;;;;;;;;;;
2019/12/12 00:57:45;;;;;;;7.6;5.3;;;;;;;;;;;;;
2019/12/12 01:00:12;;;;;;;6.2;4.6;;;;;;;;;;;;;
2019/12/12 01:02:37;;;;;;;6.5;4.9;;;;;;;;;;;;;
2019/12/12 01:05:04;;;;;;;5.7;4.1;;;;;;;;;;;;;
2019/12/12 01:07:31;;;;;;;5.1;3.9;;;;;;;;;;;;;
2019/12/12 01:09:55;;;;;;;6;4.5;;;;;;;;;;;;;
2019/12/12 01:12:19;;;;;;;6.2;4;;;;;;;;;;;;;
2019/12/12 01:14:44;;;;;;;6;4;;;;;;;;;;;;;
2019/12/12 01:17:12;;;;;;;7.3;5.2;;;;;;;;;;;;;
2019/12/12 01:19:36;;;;;;;5.9;4.2;;;;;;;;;;;;;
2019/12/12 01:21:59;;;;;;;5.3;4.1;;;;;;;;;;;;;
2019/12/12 01:24:25;;;;;;;4.6;3.7;;;;;;;;;;;;;
2019/12/12 01:26:52;;;;;;;6.9;4.9;;;;;;;;;;;;;
2019/12/12 01:29:17;;;;;;;7.9;5.7;;;;;;;;;;;;;
2019/12/12 01:31:48;;;;;;;9.5;5.9;;;;;;;;;;;;;
2019/12/12 01:34:06;;;;;;;8.4;5.8;;;;;;;;;;;;;
2019/12/12 01:36:34;;;;;;;7.8;5.3;;;;;;;;;;;;;
2019/12/12 01:38:58;;;;;;;8.2;5.9;;;;;;;;;;;;;
2019/12/12 01:41:23;;;;;;;7.5;5.8;;;;;;;;;;;;;
2019/12/12 01:43:51;;;;;;;6.8;5.3;;;;;;;;;;;;;
2019/12/12 01:46:14;;;;;;;7.6;5.7;;;;;;;;;;;;;
2019/12/12 01:48:40;;;;;;;7.3;4.7;;;;;;;;;;;;;
2019/12/12 01:51:04;;;;;;;5.5;4.6;;;;;;;;;;;;;
2019/12/12 01:53:34;;;;;;;6;4.7;;;;;;;;;;;;;
2019/12/12 01:55:55;;;;;;;6.4;4.3;;;;;;;;;;;;;
2019/12/12 01:58:22;;;;;;;6.6;4.6;;;;;;;;;;;;;
2019/12/12 02:00:46;;;;;;;7;5.1;;;;;;;;;;;;;
2019/12/12 02:03:12;;;;;;;6.3;4.7;;;;;;;;;;;;;
2019/12/12 02:05:40;;;;;;;6;4.6;;;;;;;;;;;;;
2019/12/12 02:08:04;;;;;;;6.2;5;;;;;;;;;;;;;
2019/12/12 02:10:32;;;;;;;6.2;4.5;;;;;;;;;;;;;
2019/12/12 02:12:55;;;;;;;5.4;4.1;;;;;;;;;;;;;
2019/12/12 02:15:21;;;;;;;6.9;3.9;;;;;;;;;;;;;
2019/12/12 02:17:45;;;;;;;6;4.1;;;;;;;;;;;;;
2019/12/12 02:20:12;;;;;;;5;4.1;;;;;;;;;;;;;
2019/12/12 02:22:48;;;;;;;6.1;4.6;;;;;;;;;;;;;
2019/12/12 02:25:06;;;;;;;6.9;5.3;;;;;;;;;;;;;
2019/12/12 02:27:49;;;;;;;7.3;5.1;;;;;;;;;;;;;
2019/12/12 02:29:51;;;;;;;7.8;5.6;;;;;;;;;;;;;
2019/12/12 02:32:19;;;;;;;6.7;5.3;;;;;;;;;;;;;
2019/12/12 02:34:42;;;;;;;7.5;5.7;;;;;;;;;;;;;
2019/12/12 02:37:08;;;;;;;7.1;5.2;;;;;;;;;;;;;
2019/12/12 02:39:37;;;;;;;7.6;5.7;;;;;;;;;;;;;
2019/12/12 02:42:00;;;;;;;7.6;5.7;;;;;;;;;;;;;
2019/12/12 02:44:26;;;;;;;7.2;5.6;;;;;;;;;;;;;
2019/12/12 02:46:51;;;;;;;8.3;6.3;;;;;;;;;;;;;
2019/12/12 02:49:20;;;;;;;9;7;;;;;;;;;;;;;
2019/12/12 02:51:46;;;;;;;8.6;6.4;;;;;;;;;;;;;
2019/12/12 02:54:14;;;;;;;8.4;6.3;;;;;;;;;;;;;
2019/12/12 02:56:40;;;;;;;7.8;6.1;;;;;;;;;;;;;
2019/12/12 02:59:05;;;;;;;6.9;5.8;;;;;;;;;;;;;
2019/12/12 03:01:34;;;;;;;8.4;6.3;;;;;;;;;;;;;
2019/12/12 03:03:56;;;;;;;7.4;6;;;;;;;;;;;;;
2019/12/12 03:06:20;;;;;;;7.9;5.8;;;;;;;;;;;;;
2019/12/12 03:08:46;;;;;;;9;6.4;;;;;;;;;;;;;
2019/12/12 03:11:15;;;;;;;7.8;6.3;;;;;;;;;;;;;
2019/12/12 03:13:37;;;;;;;9;6.6;;;;;;;;;;;;;
2019/12/12 03:16:03;;;;;;;9.8;7;;;;;;;;;;;;;
2019/12/12 03:18:27;;;;;;;9.2;7.1;;;;;;;;;;;;;
2019/12/12 03:20:57;;;;;;;9.9;7;;;;;;;;;;;;;
2019/12/12 03:23:21;;;;;;;10.1;6.8;;;;;;;;;;;;;
2019/12/12 03:25:51;;;;;;;7.8;6.1;;;;;;;;;;;;;
2019/12/12 03:28:16;;;;;;;6.5;5.1;;;;;;;;;;;;;
2019/12/12 03:30:41;;;;;;;5.2;3.9;;;;;;;;;;;;;
2019/12/12 03:33:10;;;;;;;3;2.7;;;;;;;;;;;;;
2019/12/12 03:35:31;;;;;;;3;2.7;;;;;;;;;;;;;
2019/12/12 03:38:00;;;;;;;3.2;2.5;;;;;;;;;;;;;
2019/12/12 03:40:25;;;;;;;4;3;;;;;;;;;;;;;
2019/12/12 03:42:50;;;;;;;3.6;2.9;;;;;;;;;;;;;
2019/12/12 03:45:15;;;;;;;3.6;2.9;;;;;;;;;;;;;
2019/12/12 03:47:44;;;;;;;3.9;2.9;;;;;;;;;;;;;
2019/12/12 03:50:09;;;;;;;3.4;2.8;;;;;;;;;;;;;
2019/12/12 03:52:32;;;;;;;3.6;2.9;;;;;;;;;;;;;
2019/12/12 03:54:57;;;;;;;3.8;3.1;;;;;;;;;;;;;
2019/12/12 03:57:23;;;;;;;4.7;3.4;;;;;;;;;;;;;
2019/12/12 03:59:47;;;;;;;4.2;3.5;;;;;;;;;;;;;
2019/12/12 04:02:35;;;;;;;4.3;3;;;;;;;2.96;84.47949;927.4487;;;;
2019/12/12 04:05:06;;;;;;;4.2;3.5;;;;;;;2.88;84.8125;927.43;;;;
2019/12/12 04:08:18;;;;;;;4.4;3.6;;;;;;;2.88;84.73242;927.4747;;;;
2019/12/12 04:12:57;;;;;;;4.8;4;;;;;;;2.88;85.05957;927.4866;;;;
2019/12/12 04:14:59;;;;;;;5.2;4.7;;;;;;;2.9;84.81641;927.4737;;;;
2019/12/12 04:17:31;;;;;;;7.5;6.2;;;;;;;2.89;84.98242;927.4899;;;;
2019/12/12 04:20:00;;;;;;;7;6.3;;;;;;;2.87;85.34766;927.4422;;;;
2019/12/12 04:22:37;;;;;;;7.5;6.7;;;;;;;2.82;85.69531;927.4396;;;;
2019/12/12 04:25:04;;;;;;;7.7;6.9;;;;;;;2.87;85.58496;927.4243;;;;
2019/12/12 04:27:32;;;;;;;6.9;6.2;;;;;;;2.89;85.68945;927.467;;;;
2019/12/12 04:30:01;;;;;;;6.1;5.5;;;;;;;2.87;86.08789;927.4069;;;;
2019/12/12 04:32:28;;;;;;;5.8;5.2;;;;;;;2.87;86.32324;927.4863;;;;
2019/12/12 04:34:58;;;;;;;5.8;5.2;;;;;;;2.9;86.27441;927.535;;;;
2019/12/12 04:37:21;;;;;;;5.1;4.6;;;;;;;2.82;86.64844;927.4703;;;;
2019/12/12 04:39:47;;;;;;;5.7;4.5;;;;;;;2.91;86.56738;927.4274;;;;
2019/12/12 04:42:16;;;;;;;5.1;4.6;;;;;;;2.96;86.3418;927.4558;;;;
2019/12/12 04:44:40;;;;;;;5.3;4.7;;;;;;;2.99;86.14648;927.4401;;;;
2019/12/12 04:47:13;;;;;;;5.9;5.3;;;;;;;2.94;86.30371;927.3956;;;;
2019/12/12 04:49:28;;;;;;;5.9;5.3;;;;;;;2.94;86.21387;927.4469;;;;
2019/12/12 04:52:01;;;;;;;6.8;6.2;;;;;;;2.93;86.17871;927.4153;;;;
2019/12/12 04:54:33;;;;;;;11.1;6.4;;;;;;;2.98;86.06445;927.3917;;;;
2019/12/12 04:57:01;;;;;;;6.8;5.6;;;;;;;2.94;86.125;927.3533;;;;
2019/12/12 04:59:25;;;;;;;5.7;4.9;;;;;;;2.92;86.40137;927.4811;;;;
2019/12/12 05:01:52;;;;;;;6.8;5.4;;;;;;;2.74;87.11621;927.503;;;;
2019/12/12 05:04:23;;;;;;;8.6;6.3;;;;;;;2.26;88.75391;927.5283;;;;
2019/12/12 05:06:55;;;;;;;7.2;6;;;;;;;2.16;89.67285;927.5492;;;;
2019/12/12 05:09:10;;;;;;;9.2;6;;;;;;;2.31;89.38965;927.6235;;;;
2019/12/12 05:11:53;;;;;;;5.8;5.2;;;;;;;2.01;90.15527;927.4961;;;;
2019/12/12 05:14:25;;;;;;;9.6;6.6;;;;;;;2.11;90.45703;927.5952;;;;
2019/12/12 05:16:53;;;;;;;5.8;5.2;;;;;;;2.1;90.54395;927.6167;;;;
2019/12/12 05:19:17;;;;;;;5.3;4;;;;;;;2.2;90.02832;927.6082;;;;
2019/12/12 05:21:46;;;;;;;5.2;3.7;;;;;;;2.39;89.30859;927.6089;;;;
2019/12/12 05:26:50;;;;;;;4.8;3.7;;;;;;;2.66;88.19727;927.683;;;;
2019/12/12 05:29:14;;;;;;;4.7;3.4;;;;;;;2.78;87.65039;927.7239;;;;
2019/12/12 05:31:44;;;;;;;2.9;2.3;;;;;;;2.77;87.58105;927.7275;;;;
2019/12/12 05:34:09;;;;;;;1.9;1.7;;;;;;;2.79;87.31543;927.7917;;;;
2019/12/12 05:36:41;;;;;;;3;1.5;;;;;;;2.77;87.48047;927.8164;;;;
2019/12/12 05:39:08;;;;;;;5.3;2;;;;;;;2.78;87.53809;927.811;;;;
2019/12/12 05:41:35;;;;;;;4.6;1.6;;;;;;;2.79;87.51758;927.7996;;;;
2019/12/12 05:44:00;;;;;;;3.5;1.7;;;;;;;2.8;87.56641;927.8049;;;;
2019/12/12 05:46:32;;;;;;;6.7;2;;;;;;;2.89;87.34961;927.8035;;;;
2019/12/12 05:48:57;;;;;;;4.7;3.7;;;;;;;2.98;86.96387;927.7519;;;;
2019/12/12 05:51:24;;;;;;;5.8;5.3;;;;;;;3;86.87598;927.7971;;;;
2019/12/12 05:53:51;;;;;;;6.4;5.8;;;;;;;3.08;86.64551;927.8194;;;;
2019/12/12 05:56:29;;;;;;;6.7;6;;;;;;;3.06;86.2959;927.8278;;;;
2019/12/12 05:58:57;;;;;;;8;7.1;;;;;;;3.07;86.43066;927.7256;;;;
2019/12/12 06:01:22;;;;;;;8.1;7;;;;;;;3.11;86.58398;927.8798;;;;
2019/12/12 06:03:48;;;;;;;7.4;6.7;;;;;;;3.01;87.06055;927.9204;;;;
2019/12/12 06:06:14;;;;;;;7.7;6.2;;;;;;;3;87.25879;927.9536;;;;
2019/12/12 06:08:52;;;;;;;7.3;6.6;;;;;;;3;87.16992;927.9091;;;;
2019/12/12 06:11:09;;;;;;;6.8;6.1;;;;;;;3.05;86.96582;927.9408;;;;
2019/12/12 06:13:33;;;;;;;7;5.6;;;;;;;3.08;86.78027;927.9247;;;;
2019/12/12 06:15:58;;;;;;;7.4;5.1;;;;;;;3.1;86.85352;927.8805;;;;
2019/12/12 06:19:31;;;;;;;9;6.9;;;;;;;3.1;86.66211;927.9922;;;;
2019/12/12 06:21:22;;;;;;;7.4;6.6;;;;;;;3.02;86.75781;927.9764;;;;
2019/12/12 06:23:46;;;;;;;7.9;6.8;;;;;;;3.05;86.9209;928.0083;;;;
2019/12/12 06:26:17;;;;;;;9.7;7.3;;;;;;;3.08;86.58984;927.9413;;;;
2019/12/12 06:28:50;;;;;;;11.7;7.5;;;;;;;3.1;86.51465;927.9724;;;;
2019/12/12 06:31:14;;;;;;;12.2;7.1;;;;;;;3.13;86.33105;928.0297;;;;
2019/12/12 06:33:43;;;;;;;10.8;7.5;;;;;;;3.12;86.44141;928.0239;;;;
2019/12/12 06:36:14;;;;;;;10.2;6.9;;;;;;;3.13;86.21875;928.0508;;;;
2019/12/12 06:38:41;;;;;;;9.7;6.8;;;;;;;3.13;86.26367;927.9849;;;;
2019/12/12 06:41:13;;;;;;;7.2;5.3;;;;;;;3.13;86.24121;927.9895;;;;
2019/12/12 06:43:37;;;;;;;10.5;6.4;;;;;;;3.08;86.56738;928.0483;;;;
2019/12/12 06:46:07;;;;;;;9.4;6.2;;;;;;;3.07;86.62109;928.0708;;;;
2019/12/12 06:48:32;;;;;;;11.8;6.8;;;;;;;3.08;86.57813;928.0679;;;;
2019/12/12 06:50:57;;;;;;;9.2;6.2;;;;;;;2.93;86.81836;928.0425;;;;
2019/12/12 06:53:28;;;;;;;7.7;4.7;;;;;;;2.9;86.90039;928.0302;;;;
2019/12/12 06:56:01;;;;;;;5.9;4.2;;;;;;;3;86.55078;927.9991;;;;
2019/12/12 06:58:31;;;;;;;7;5;;;;;;;3.05;86.46094;927.9643;;;;
2019/12/12 07:00:52;;;;;;;11.6;6.2;;;;;;;3.08;86.56738;927.9949;;;;
2019/12/12 07:03:18;;;;;;;10.4;5.7;;;;;;;3.08;86.4209;927.9877;;;;
2019/12/12 07:05:42;;;;;;;8.4;4.7;;;;;;;3.08;86.00586;927.9916;;;;
2019/12/12 07:08:07;;;;;;;9.6;5.2;;;;;;;3;86.42676;927.9575;;;;
2019/12/12 07:10:40;;;;;;;15.3;10.8;;;;;;;3.02;86.73535;927.9133;;;;
2019/12/12 07:13:04;;;;;;;9.3;6.4;;;;;;;2.97;86.54688;927.9947;;;;
2019/12/12 07:15:32;;;;;;;10.6;6.2;;;;;;;2.96;86.59961;927.9504;;;;
2019/12/12 07:21:11;;;;;;;16.6;7.4;;;;;;;2.92;86.63477;927.9872;;;;
2019/12/12 07:22:51;;;;;;;15.6;10.2;;;;;;;2.97;87.24023;927.916;;;;
2019/12/12 07:25:15;;;;;;;19.6;12;;;;;;;2.97;86.70215;927.9387;;;;
2019/12/12 07:27:40;;;;;;;13.7;9.3;;;;;;;2.93;86.81641;927.9551;;;;
2019/12/12 07:30:13;;;;;;;12.8;9.4;;;;;;;2.84;86.75488;927.9258;;;;
2019/12/12 07:32:39;;;;;;;11.5;9;;;;;;;2.84;86.88965;927.8803;;;;
2019/12/12 07:35:12;;;;;;;12.9;9.3;;;;;;;2.87;86.99609;927.8714;;;;
2019/12/12 07:37:40;;;;;;;11.2;9;;;;;;;2.94;86.46094;927.9459;;;;
2019/12/12 07:40:11;;;;;;;14.9;9.7;;;;;;;2.96;86.4668;927.9458;;;;
2019/12/12 07:45:09;;;;;;;14.2;9.9;;;;;;;2.99;86.09082;927.9047;;;;
2019/12/12 07:47:37;;;;;;;19.3;13.6;;;;;;;3.03;86.01953;927.8791;;;;
2019/12/12 07:50:02;;;;;;;11.7;7.9;;;;;;;2.62;87.27148;927.8336;;;;
2019/12/12 07:52:26;;;;;;;13.9;9.1;;;;;;;2.69;87.39648;927.7888;;;;
2019/12/12 07:55:12;;;;;;;11.2;9.4;;;;;;;2.68;87.6748;927.7547;;;;
2019/12/12 07:57:39;;;;;;;11.1;8.9;;;;;;;2.67;87.80762;927.8198;;;;
2019/12/12 08:00:10;;;;;;;13.6;8.2;;;;;;;2.62;87.66309;927.7433;;;;
2019/12/12 08:02:37;;;;;;;11;8.8;;;;;;;2.79;87.37207;927.8254;;;;
2019/12/12 08:04:58;;;;;;;13.8;8.3;;;;;;;2.92;87.04102;927.79;;;;
2019/12/12 08:07:28;;;;;;;17.1;10.1;;;;;;;2.88;87.13281;927.808;;;;
2019/12/12 08:09:55;;;;;;;14.1;10.9;;;;;;;2.94;86.79785;927.7997;;;;
2019/12/12 08:12:26;;;;;;;13.2;10.3;;;;;;;2.9;86.72266;927.7581;;;;
2019/12/12 08:14:50;;;;;;;15.2;10.6;;;;;;;2.94;86.61816;927.7698;;;;
2019/12/12 08:17:16;;;;;;;11.6;10.4;;;;;;;2.87;86.7959;927.8127;;;;
2019/12/12 08:19:43;;;;;;;12.6;10.7;;;;;;;2.8;87.16211;927.8541;;;;
2019/12/12 08:22:18;;;;;;;15.1;11.5;;;;;;;2.86;87.18457;927.8972;;;;
2019/12/12 08:24:45;;;;;;;12.4;10.6;;;;;;;2.7;87.36426;927.8369;;;;
2019/12/12 08:27:16;;;;;;;13;10.9;;;;;;;2.69;87.73242;927.8555;;;;
2019/12/12 08:29:45;;;;;;;13.5;11.9;;;;;;;2.5;88.06445;927.8583;;;;
2019/12/12 08:32:12;;;;;;;14.3;12.2;;;;;;;2.59;88.23828;927.89;;;;
2019/12/12 08:34:44;;;;;;;12.9;11.5;;;;;;;2.65;87.92676;927.8831;;;;
2019/12/12 08:37:14;;;;;;;14.7;11.8;;;;;;;2.7;87.78125;927.8865;;;;
2019/12/12 08:39:36;;;;;;;14.4;10.9;;;;;;;2.64;87.86719;927.9063;;;;
2019/12/12 08:42:06;;;;;;;13.5;11.6;;;;;;;2.67;87.88379;927.8456;;;;
2019/12/12 08:44:37;;;;;;;15;11;;;;;;;2.8;87.53223;927.8446;;;;
2019/12/12 08:47:03;;;;;;;12.7;10.1;;;;;;;2.79;87.21484;927.8389;;;;
2019/12/12 08:49:31;;;;;;;13.5;10.7;;;;;;;2.6;87.80371;927.9052;;;;
2019/12/12 08:51:54;;;;;;;13.8;11;;;;;;;2.65;87.97168;927.9161;;;;
2019/12/12 08:54:25;;;;;;;16.1;12.6;;;;;;;2.64;88.18262;927.9331;;;;
2019/12/12 08:56:47;;;;;;;16.6;13.1;;;;;;;2.67;88.26465;927.995;;;;
2019/12/12 08:59:14;;;;;;;15.4;12.6;;;;;;;2.86;87.38867;928.027;;;;
2019/12/12 09:01:41;;;;;;;16.9;13.2;;;;;;;2.94;87.12305;927.9657;;;;
2019/12/12 09:04:09;;;;;;;16.9;14;;;;;;;2.9;86.82227;928.0277;;;;
2019/12/12 09:06:34;;;;;;;18.8;14.7;;;;;;;2.87;87.32129;928.0437;;;;
2019/12/12 09:09:05;;;;;;;16.3;12.6;;;;;;;3.06;86.28516;928.0637;;;;
2019/12/12 09:11:39;;;;;;;15.7;12.2;;;;;;;3.2;85.97559;927.9824;;;;
2019/12/12 09:14:06;;;;;;;18.4;13;;;;;;;3.26;85.38184;927.9839;;;;
2019/12/12 09:16:35;;;;;;;18.4;12.8;;;;;;;3.4;84.94922;927.9456;;;;
2019/12/12 09:19:21;;;;;;;19.6;13.2;;;;;;;3.55;84.5752;927.974;;;;
2019/12/12 09:21:26;;;;;;;15.2;12.1;;;;;;;3.71;83.56055;927.9991;;;;
2019/12/12 09:23:58;;;;;;;15.8;11.9;;;;;;;3.8;83.24316;927.941;;;;
2019/12/12 09:26:22;;;;;;;16.9;11.6;;;;;;;3.88;83.12207;927.8072;;;;
2019/12/12 09:28:46;;;;;;;13.7;10.3;;;;;;;3.9;82.93457;927.8855;;;;
2019/12/12 09:31:16;;;;;;;11.1;9;;;;;;;3.98;82.49121;927.8602;;;;
2019/12/12 09:33:48;;;;;;;14.9;10.8;;;;;;;4.07;82.27051;927.8186;;;;
2019/12/12 09:36:13;;;;;;;13.8;9.5;;;;;;;4.12;82.06543;927.7422;;;;
2019/12/12 09:38:38;;;;;;;10.7;8.3;;;;;;;4.16;81.97461;927.7562;;;;
2019/12/12 09:41:05;;;;;;;8.6;7.4;;;;;;;4.21;81.56543;927.7478;;;;
2019/12/12 09:43:33;;;;;;;9.7;7;;;;;;;4.24;81.5498;927.6838;;;;
2019/12/12 09:46:02;;;;;;;8.6;6.6;;;;;;;4.28;81.1084;927.6379;;;;
2019/12/12 09:48:28;;;;;;;8.1;5.5;;;;;;;4.26;80.59668;927.5989;;;;
2019/12/12 09:50:52;;;;;;;7.3;5.6;;;;;;;4.29;80.95313;927.5963;;;;
2019/12/12 09:53:31;;;;;;;6.8;4.6;;;;;;;4.34;80.9834;927.567;;;;
2019/12/12 09:55:56;;;;;;;8.7;4;;;;;;;4.42;80.44727;927.5804;;;;
2019/12/12 09:58:24;;;;;;;5.2;2.7;;;;;;;4.46;79.63477;927.4604;;;;
2019/12/12 10:00:53;;;;;;;9.2;3.3;;;;;;;4.4;79.7002;927.5341;;;;
2019/12/12 10:04:16;;;;;;;7.1;3.4;;;;;;;4.45;79.88965;927.5115;;;;
2019/12/12 10:06:38;;;;;;;5.1;2.7;;;;;;;4.66;79.34277;927.4406;;;;
2019/12/12 10:09:13;;;;;;;4.8;2;;;;;;;4.7;78.87891;927.4231;;;;
2019/12/12 10:11:41;;;;;;;4.8;2.2;;;;;;;4.72;78.64746;927.3769;;;;
2019/12/12 10:14:05;;;;;;;4;2.1;;;;;;;4.75;78.21289;927.3314;;;;
2019/12/12 10:16:42;;;;;;;3.3;1.8;;;;;;;4.8;77.41016;927.3488;;;;
2019/12/12 10:19:15;;;;;;;6.6;3.8;;;;;;;4.8;78.35645;927.2983;;;;
2019/12/12 10:21:44;;;;;;;3.4;2.2;;;;;;;4.9;78.30664;927.2635;;;;
2019/12/12 10:25:56;;;;;;;3.3;1.9;;;;;;;4.94;77.27637;927.2127;;;;
2019/12/12 10:29:16;;;;;;;3.9;1.6;;;;;;;5.03;78.07227;927.0762;;;;
2019/12/12 10:31:39;;;;;;;4.1;1.6;;;;;;;5.06;76.92773;927.1545;;;;
2019/12/12 10:34:11;;;;;;;4.2;1.6;;;;;;;4.86;77.50977;927.1155;;;;
2019/12/12 10:36:38;;;;;;;4.6;1.5;;;;;;;4.74;78.31055;927.0625;;;;
2019/12/12 10:39:03;;;;;;;4.5;2.1;;;;;;;4.74;78.24316;927.0215;;;;
2019/12/12 10:41:31;;;;;;;4.1;2.5;;;;;;;4.82;78.21289;927.0125;;;;
2019/12/12 10:44:02;;;;;;;7.8;4.6;;;;;;;4.85;78.5459;926.9506;;;;
2019/12/12 10:46:30;;;;;;;6.1;2.3;;;;;;;4.81;78.02148;926.9399;;;;
2019/12/12 10:48:58;;;;;;;6.8;4.4;;;;;;;4.82;78.37109;926.8564;;;;
2019/12/12 10:51:28;;;;;;;6.8;2.3;;;;;;;4.89;77.73242;926.8352;;;;
2019/12/12 10:54:01;;;;;;;4.8;2.2;;;;;;;4.96;77.85645;926.8542;;;;
2019/12/12 10:56:26;;;;;;;5;1.9;;;;;;;5.08;78.33984;926.8589;;;;
2019/12/12 10:58:56;;;;;;;5;1.7;;;;;;;5.16;77.3291;926.7636;;;;
2019/12/12 11:01:25;;;;;;;4.4;2.8;;;;;;;5.22;77.8457;926.7511;;;;
2019/12/12 11:03:54;;;;;;;9.5;6.3;;;;;;;5.27;77.05371;926.7847;;;;
2019/12/12 11:06:19;;;;;;;2.6;1.9;;;;;;;5.22;77.57715;926.7156;;;;
2019/12/12 11:08:48;;;;;;;4.1;2.3;;;;;;;5.17;76.8584;926.6935;;;;
2019/12/12 11:11:20;;;;;;;3.7;1.5;;;;;;;5.24;77.07324;926.7402;;;;
2019/12/12 11:13:44;;;;;;;4;2.3;;;;;;;5.12;77.68262;926.7561;;;;
2019/12/12 11:16:15;;;;;;;5.1;1.8;;;;;;;5.11;77.51074;926.7164;;;;
2019/12/12 11:18:53;;;;;;;3.9;1.8;;;;;;;4.93;77.27539;926.64;;;;
2019/12/12 11:21:21;;;;;;;3.9;2.1;;;;;;;4.83;77.78613;926.6199;;;;
2019/12/12 11:23:46;;;;;;;2.3;1.6;;;;;;;4.85;78.5127;926.6439;;;;
2019/12/12 11:27:11;;;;;;;3.5;1.6;;;;;;;5;78.13477;926.5067;;;;
2019/12/12 11:29:05;;;;;;;3.5;1.5;;;;;;;5.1;77.30566;926.4907;;;;
2019/12/12 11:31:19;;;;;;;3.1;1.1;;;;;;;5.03;76.4043;926.4727;;;;
2019/12/12 11:33:49;;;;;;;2.6;1.3;;;;;;;5.12;77.34473;926.4744;;;;
2019/12/12 11:36:20;;;;;;;2.8;1.2;;;;;;;5.23;76.91211;926.3519;;;;
2019/12/12 11:38:50;;;;;;;2.4;0.9;;;;;;;5.36;75.23242;926.343;;;;
2019/12/12 11:41:19;;;;;;;2.4;1;;;;;;;5.54;75.55762;926.2927;;;;
2019/12/12 11:43:44;;;;;;;2.8;0.9;;;;;;;5.77;73.99414;926.291;;;;
2019/12/12 11:46:18;;;;;;;2.1;0.8;;;;;;;5.94;73.05273;926.2999;;;;
2019/12/12 11:48:49;;;;;;;3;1;;;;;;;6.14;71.79785;926.2446;;;;
2019/12/12 11:51:15;;;;;;;4.1;1;;;;;;;6.07;72.47656;926.2561;;;;
2019/12/12 11:53:40;;;;;;;1.8;1.1;;;;;;;6.18;71.8623;926.124;;;;
2019/12/12 11:56:09;;;;;;;2.8;1.2;;;;;;;6.07;71.41504;926.207;;;;
2019/12/12 11:58:31;;;;;;;3.2;1.3;;;;;;;5.93;72.33887;926.2375;;;;
2019/12/12 12:00:58;;;;;;;2.5;1.7;;;;;;;6.03;71.91504;926.2266;;;;
2019/12/12 12:03:27;;;;;;;4;2.1;;;;;;;6.07;71.65137;926.2166;;;;
2019/12/12 12:06:11;;;;;;;3.5;2.1;;;;;;;6.11;71.375;926.1149;;;;
2019/12/12 12:08:41;;;;;;;4.2;2.6;;;;;;;5.95;71.89063;926.116;;;;
2019/12/12 12:11:10;;;;;;;8.7;4.9;;;;;;;5.95;71.7998;926.0598;;;;
2019/12/12 12:13:38;;;;;;;7.2;2.5;;;;;;;5.95;71.7666;926.0416;;;;
2019/12/12 12:16:06;;;;;;;5.4;2.6;;;;;;;5.84;71.77051;926.0485;;;;
2019/12/12 12:18:37;;;;;;;4;2.2;;;;;;;5.6;73.40137;925.9822;;;;
2019/12/12 12:21:17;;;;;;;5;2.4;;;;;;;5.57;73.55371;925.9274;;;;
2019/12/12 12:26:14;;;;;;;4.5;2.1;;;;;;;5.53;74.05566;925.9389;;;;
2019/12/12 12:28:40;;;;;;;3.3;2.2;;;;;;;5.37;74.56738;925.8567;;;;
2019/12/12 12:31:07;;;;;;;3.3;1.9;;;;;;;5.27;75.49707;925.9056;;;;
2019/12/12 12:33:43;;;;;;;4.8;2.1;;;;;;;5.33;75.36328;925.7508;;;;
2019/12/12 12:36:16;;;;;;;2.9;1.8;;;;;;;5.34;76.2334;925.7974;;;;
2019/12/12 12:38:46;;;;;;;4.5;2.2;;;;;;;5.39;76.00488;925.7828;;;;
2019/12/12 12:41:23;;;;;;;3.5;2.3;;;;;;;5.4;76.0752;925.7087;;;;
2019/12/12 12:43:43;;;;;;;4.7;2.8;;;;;;;5.41;76.47168;925.6909;;;;
2019/12/12 12:46:09;;;;;;;5.8;3.6;;;;;;;5.51;76.15137;925.6987;;;;
2019/12/12 12:48:35;;;;;;;6.6;3.5;;;;;;;5.64;75.86914;925.6646;;;;
2019/12/12 12:51:11;;;;;;;4.7;2.3;;;;;;;5.69;75.43848;925.6728;;;;
2019/12/12 12:53:35;;;;;;;4.2;2.7;;;;;;;5.73;75.84961;925.5933;;;;
2019/12/12 12:56:07;;;;;;;4.1;2.3;;;;;;;5.77;74.36816;925.5455;;;;
2019/12/12 12:58:30;;;;;;;6.1;3.1;;;;;;;5.65;74.95605;925.528;;;;
2019/12/12 13:00:56;;;;;;;3.7;2.6;;;;;;;5.42;74.75879;925.5158;;;;
2019/12/12 13:03:28;;;;;;;4.6;2.7;;;;;;;5.29;76.09961;925.4608;;;;
2019/12/12 13:05:56;;;;;;;4.3;2.4;;;;;;;5.38;75.66406;925.4448;;;;
2019/12/12 13:08:20;;;;;;;3.6;2.3;;;;;;;5.28;76.26758;925.2879;;;;
2019/12/12 13:11:14;;;;;;;5.6;2.9;;;;;;;5.3;75.51465;925.3527;;;;
2019/12/12 13:13:40;;;;;;;3.5;2.2;;;;;;;5.28;74.76855;925.3384;;;;
2019/12/12 13:16:19;;;;;;;2.4;1.5;;;;;;;5.17;75.57324;925.2465;;;;
2019/12/12 13:18:36;;;;;;;3;1.6;;;;;;;5.15;75.85156;925.3142;;;;
2019/12/12 13:21:03;;;;;;;6.1;3.4;;;;;;;5.27;76.4707;925.272;;;;
2019/12/12 13:23:27;;;;;;;5.7;3.6;;;;;;;5.47;76.51563;925.2643;;;;
2019/12/12 13:25:52;;;;;;;6.7;3.3;;;;;;;5.61;76.49609;925.2798;;;;
2019/12/12 13:28:16;;;;;;;5.7;2.8;;;;;;;5.66;75.33203;925.2809;;;;
2019/12/12 13:30:47;;;;;;;6.6;3.8;;;;;;;5.69;74.92871;925.165;;;;
2019/12/12 13:33:14;;;;;;;5.5;4.2;;;;;;;5.62;74.33008;925.2183;;;;
2019/12/12 13:35:41;;;;;;;5.5;4.4;;;;;;;5.76;74.31055;925.22;;;;
2019/12/12 13:38:15;;;;;;;6.9;3.7;;;;;;;5.59;74.00977;925.2881;;;;
2019/12/12 13:40:45;;;;;;;5.4;4.4;;;;;;;5.5;75.3125;925.3056;;;;
2019/12/12 13:43:12;;;;;;;6.2;3.6;;;;;;;5.59;74.89063;925.2274;;;;
2019/12/12 13:45:41;;;;;;;6.2;3.4;;;;;;;5.49;74.9502;925.2598;;;;
2019/12/12 13:48:07;;;;;;;4.9;2.8;;;;;;;5.53;75.31934;925.2561;;;;
2019/12/12 13:50:38;;;;;;;3.6;2.4;;;;;;;5.63;74.72754;925.1559;;;;
2019/12/12 13:53:10;;;;;;;3.3;2.3;;;;;;;5.63;74.32031;925.1418;;;;
2019/12/12 13:55:34;;;;;;;4.2;2.2;;;;;;;5.68;74.26074;925.1318;;;;
2019/12/12 13:57:58;;;;;;;5.7;2.6;;;;;;;5.62;73.81152;925.1346;;;;
2019/12/12 14:00:31;;;;;;;14;7.8;;;;;;;5.39;74.58301;925.1799;;;;
2019/12/12 14:03:03;;;;;;;13.8;6.1;;;;;;;5.22;77.0127;925.1603;;;;
2019/12/12 14:05:28;;;;;;;6.7;2.8;;;;;;;4.99;78.64844;925.0804;;;;
2019/12/12 14:07:58;;;;;;;6.5;2.6;;;;;;;4.89;79.52246;925.0608;;;;
2019/12/12 14:10:31;;;;;;;3.7;2;;;;;;;4.81;79.05762;925.0458;;;;
2019/12/12 14:12:58;;;;;;;5.3;2.2;;;;;;;4.75;78.38184;925.0206;;;;
2019/12/12 14:15:25;;;;;;;11.5;5;;;;;;;4.49;79.23438;924.9704;;;;
2019/12/12 14:17:49;;;;;;;6.5;3.7;;;;;;;4.34;81.05176;925.0253;;;;
2019/12/12 14:20:15;;;;;;;9.1;4.5;;;;;;;4.32;81.20508;925.0369;;;;
2019/12/12 14:22:42;;;;;;;10.8;4.7;;;;;;;4.22;81.44336;924.9688;;;;
2019/12/12 14:25:17;;;;;;;13.1;6.5;;;;;;;4.04;82.34375;924.9633;;;;
2019/12/12 14:27:50;;;;;;;16;7.9;;;;;;;3.94;83.29199;924.9932;;;;
2019/12/12 14:30:19;;;;;;;11.6;6.4;;;;;;;3.84;83.93555;925.0101;;;;
2019/12/12 14:32:47;;;;;;;12.5;6.8;;;;;;;3.78;84.19336;925.027;;;;
2019/12/12 14:37:37;;;;;;;12.1;7.3;;;;;;;3.68;84.4209;925.0314;;;;
2019/12/12 14:40:16;;;;;;;14.5;8.2;;;;;;;3.56;85.0918;924.9774;;;;
2019/12/12 14:42:42;;;;;;;14.6;10.1;;;;;;;3.63;84.85938;924.9008;;;;
2019/12/12 14:45:22;;;;;;;22.8;15;;;;;;;3.7;84.8291;924.9205;;;;
2019/12/12 14:47:57;;;;;;;9.3;6.1;;;;;;;3.78;84.22656;924.9279;;;;
2019/12/12 14:50:22;;;;;;;10.4;6.8;;;;;;;3.75;84.54688;924.8865;;;;
2019/12/12 14:53:03;;;;;;;9.6;6.1;;;;;;;3.63;84.65723;924.7938;;;;
2019/12/12 14:55:45;;;;;;;10.2;7;;;;;;;3.62;85.18555;924.7944;;;;
2019/12/12 15:01:17;;;;;;;7.5;5;;;;;;;3.72;84.40723;924.8225;;;;
2019/12/12 15:03:46;;;;;;;14.2;11.4;;;;;;;3.69;84.50098;924.7268;;;;
2019/12/12 15:06:18;;;;;;;33.7;27.6;;;;;;;3.67;84.86816;924.7557;;;;
2019/12/12 15:08:47;;;;;;;32.8;26.8;;;;;;;3.6;85.08008;924.7065;;;;
2019/12/12 15:11:16;;;;;;;53.8;44.7;;;;;;;3.55;84.99121;924.6531;;;;
2019/12/12 15:13:47;;;;;;;26.6;20.5;;;;;;;3.53;85.41211;924.5718;;;;
2019/12/12 15:16:19;;;;;;;30.7;26.9;;;;;;;3.61;84.93652;924.6573;;;;
2019/12/12 15:18:45;;;;;;;18.4;13.2;;;;;;;3.7;84.62793;924.5712;;;;
2019/12/12 15:21:12;;;;;;;11.6;8.8;;;;;;;3.71;83.65039;924.5342;;;;
2019/12/12 15:23:39;;;;;;;12.4;7.2;;;;;;;3.7;83.71777;924.6309;;;;
2019/12/12 15:26:18;;;;;;;15.5;10.7;;;;;;;3.7;84.30078;924.5955;;;;
2019/12/12 15:31:14;;;;;;;5.9;3.9;;;;;;;3.57;84.64453;924.5266;;;;
2019/12/12 15:33:44;;;;;;;6.9;3.5;;;;;;;3.59;84.4248;924.5513;;;;
2019/12/12 15:36:11;;;;;;;7.7;4.2;;;;;;;3.62;84.52051;924.5016;;;;
2019/12/12 15:38:41;;;;;;;7.7;4.8;;;;;;;3.64;84.41309;924.4547;;;;
2019/12/12 15:41:05;;;;;;;12;6.9;;;;;;;3.56;84.78906;924.3589;;;;
2019/12/12 15:43:29;;;;;;;21.6;16.1;;;;;;;3.47;84.99512;924.4066;;;;
2019/12/12 15:46:00;;;;;;;11.1;6.5;;;;;;;3.34;85.25098;924.4053;;;;
2019/12/12 15:48:24;;;;;;;12.2;8.3;;;;;;;3.29;85.27344;924.3669;;;;
2019/12/12 15:50:50;;;;;;;8.8;5.7;;;;;;;3.23;85.39551;924.3172;;;;
2019/12/12 15:53:21;;;;;;;8.3;5.2;;;;;;;3.19;85.16602;924.3337;;;;
2019/12/12 15:55:46;;;;;;;9.4;5.4;;;;;;;3.17;84.47754;924.2737;;;;
2019/12/12 15:58:27;;;;;;;18;11.2;;;;;;;3.17;85.09473;924.262;;;;
2019/12/12 16:01:50;;;;;;;20.3;13.9;;;;;;;3.06;85.7334;924.2768;;;;
2019/12/12 16:03:24;;;;;;;21.2;13.9;;;;;;;2.99;86.14648;924.1663;;;;
2019/12/12 16:05:51;;;;;;;22.1;13.9;;;;;;;2.9;86.42969;924.2506;;;;
2019/12/12 16:08:20;;;;;;;21.6;14.6;;;;;;;2.83;86.62988;924.2054;;;;
2019/12/12 16:10:49;;;;;;;18.2;13.7;;;;;;;2.76;86.69531;924.1744;;;;
2019/12/12 16:13:14;;;;;;;17.8;11.2;;;;;;;2.72;86.53809;924.0809;;;;